sensor_id;sensor_type;location;lat;lon;timestamp;P1;durP1;ratioP1;P2;durP2;ratioP2
49458;SDS011;35354;51.296;16.924;2023-07-28T00:02:12;3.38;;;3.03;;
49458;SDS011;35354;51.296;16.924;2023-07-28T00:04:37;2.92;;;2.47;;
49458;SDS011;35354;51.296;16.924;2023-07-28T00:07:03;3.22;;;2.80;;
49458;SDS011;35354;51.296;16.924;2023-07-28T00:09:29;3.35;;;2.53;;
49458;SDS011;35354;51.296;16.924;2023-07-28T00:11:56;4.20;;;2.50;;
49458;SDS011;35354;51.296;16.924;2023-07-28T00:14:25;8.40;;;2.50;;
49458;SDS011;35354;51.296;16.924;2023-07-28T00:16:51;4.03;;;2.65;;
49458;SDS011;35354;51.296;16.924;2023-07-28T00:19:17;7.00;;;2.38;;
49458;SDS011;35354;51.296;16.924;2023-07-28T00:21:44;3.13;;;2.72;;
49458;SDS011;35354;51.296;16.924;2023-07-28T00:24:09;2.83;;;2.63;;
49458;SDS011;35354;51.296;16.924;2023-07-28T00:26:34;3.38;;;2.40;;
49458;SDS011;35354;51.296;16.924;2023-07-28T00:29:00;3.00;;;2.70;;
49458;SDS011;35354;51.296;16.924;2023-07-28T00:31:25;4.10;;;2.80;;
49458;SDS011;35354;51.296;16.924;2023-07-28T00:33:51;3.33;;;2.00;;
49458;SDS011;35354;51.296;16.924;2023-07-28T00:36:16;5.22;;;2.40;;
49458;SDS011;35354;51.296;16.924;2023-07-28T00:38:41;3.22;;;2.50;;
49458;SDS011;35354;51.296;16.924;2023-07-28T00:41:07;2.72;;;2.53;;
49458;SDS011;35354;51.296;16.924;2023-07-28T00:43:32;3.45;;;2.60;;
49458;SDS011;35354;51.296;16.924;2023-07-28T00:45:57;3.30;;;2.83;;
49458;SDS011;35354;51.296;16.924;2023-07-28T00:48:23;4.00;;;2.80;;
49458;SDS011;35354;51.296;16.924;2023-07-28T00:50:50;2.65;;;2.40;;
49458;SDS011;35354;51.296;16.924;2023-07-28T00:53:16;7.00;;;3.22;;
49458;SDS011;35354;51.296;16.924;2023-07-28T00:55:41;4.53;;;2.92;;
49458;SDS011;35354;51.296;16.924;2023-07-28T00:58:08;5.25;;;3.13;;
49458;SDS011;35354;51.296;16.924;2023-07-28T01:00:33;3.75;;;3.40;;
49458;SDS011;35354;51.296;16.924;2023-07-28T01:02:59;2.90;;;2.60;;
49458;SDS011;35354;51.296;16.924;2023-07-28T01:05:26;3.85;;;3.30;;
49458;SDS011;35354;51.296;16.924;2023-07-28T01:10:31;3.85;;;3.03;;
49458;SDS011;35354;51.296;16.924;2023-07-28T01:12:57;3.78;;;3.17;;
49458;SDS011;35354;51.296;16.924;2023-07-28T01:15:23;3.20;;;2.90;;
49458;SDS011;35354;51.296;16.924;2023-07-28T01:17:49;3.65;;;3.35;;
49458;SDS011;35354;51.296;16.924;2023-07-28T01:20:15;6.30;;;3.60;;
49458;SDS011;35354;51.296;16.924;2023-07-28T01:28:13;3.60;;;3.30;;
49458;SDS011;35354;51.296;16.924;2023-07-28T01:30:41;5.75;;;3.40;;
49458;SDS011;35354;51.296;16.924;2023-07-28T01:33:07;3.50;;;3.08;;
49458;SDS011;35354;51.296;16.924;2023-07-28T01:35:33;4.80;;;3.45;;
49458;SDS011;35354;51.296;16.924;2023-07-28T01:37:59;3.63;;;3.00;;
49458;SDS011;35354;51.296;16.924;2023-07-28T01:40:24;5.10;;;3.50;;
49458;SDS011;35354;51.296;16.924;2023-07-28T01:42:49;3.90;;;3.22;;
49458;SDS011;35354;51.296;16.924;2023-07-28T01:45:15;3.58;;;3.28;;
49458;SDS011;35354;51.296;16.924;2023-07-28T01:47:40;4.55;;;3.28;;
49458;SDS011;35354;51.296;16.924;2023-07-28T01:50:05;3.50;;;3.20;;
49458;SDS011;35354;51.296;16.924;2023-07-28T01:52:31;4.07;;;2.97;;
49458;SDS011;35354;51.296;16.924;2023-07-28T01:54:56;3.72;;;3.38;;
49458;SDS011;35354;51.296;16.924;2023-07-28T01:57:22;3.45;;;3.15;;
49458;SDS011;35354;51.296;16.924;2023-07-28T01:59:49;3.22;;;2.92;;
49458;SDS011;35354;51.296;16.924;2023-07-28T02:02:14;4.78;;;2.95;;
49458;SDS011;35354;51.296;16.924;2023-07-28T02:04:40;3.00;;;2.70;;
49458;SDS011;35354;51.296;16.924;2023-07-28T02:07:05;3.30;;;3.00;;
49458;SDS011;35354;51.296;16.924;2023-07-28T02:09:30;3.15;;;2.85;;
49458;SDS011;35354;51.296;16.924;2023-07-28T02:11:56;3.25;;;2.95;;
49458;SDS011;35354;51.296;16.924;2023-07-28T02:14:21;3.42;;;2.70;;
49458;SDS011;35354;51.296;16.924;2023-07-28T02:16:47;2.67;;;2.47;;
49458;SDS011;35354;51.296;16.924;2023-07-28T02:19:12;3.40;;;3.10;;
49458;SDS011;35354;51.296;16.924;2023-07-28T02:21:37;4.93;;;3.35;;
49458;SDS011;35354;51.296;16.924;2023-07-28T02:24:03;3.55;;;2.78;;
49458;SDS011;35354;51.296;16.924;2023-07-28T02:26:28;3.50;;;3.20;;
49458;SDS011;35354;51.296;16.924;2023-07-28T02:28:54;3.95;;;3.10;;
49458;SDS011;35354;51.296;16.924;2023-07-28T02:31:19;4.38;;;3.55;;
49458;SDS011;35354;51.296;16.924;2023-07-28T02:33:44;4.90;;;3.88;;
49458;SDS011;35354;51.296;16.924;2023-07-28T02:36:10;5.07;;;4.25;;
49458;SDS011;35354;51.296;16.924;2023-07-28T02:38:35;4.85;;;3.90;;
49458;SDS011;35354;51.296;16.924;2023-07-28T02:41:00;5.93;;;3.53;;
49458;SDS011;35354;51.296;16.924;2023-07-28T02:43:28;4.53;;;4.13;;
49458;SDS011;35354;51.296;16.924;2023-07-28T02:45:54;5.00;;;4.03;;
49458;SDS011;35354;51.296;16.924;2023-07-28T02:48:20;4.00;;;3.70;;
49458;SDS011;35354;51.296;16.924;2023-07-28T02:50:47;5.05;;;4.55;;
49458;SDS011;35354;51.296;16.924;2023-07-28T02:53:15;7.80;;;6.72;;
49458;SDS011;35354;51.296;16.924;2023-07-28T02:55:41;11.15;;;10.15;;
49458;SDS011;35354;51.296;16.924;2023-07-28T02:58:10;24.88;;;22.23;;
49458;SDS011;35354;51.296;16.924;2023-07-28T03:00:42;16.15;;;14.57;;
49458;SDS011;35354;51.296;16.924;2023-07-28T03:03:09;12.57;;;11.15;;
49458;SDS011;35354;51.296;16.924;2023-07-28T03:05:35;9.18;;;7.35;;
49458;SDS011;35354;51.296;16.924;2023-07-28T03:08:01;7.05;;;5.80;;
49458;SDS011;35354;51.296;16.924;2023-07-28T03:10:27;5.68;;;5.18;;
49458;SDS011;35354;51.296;16.924;2023-07-28T03:12:53;6.43;;;5.40;;
49458;SDS011;35354;51.296;16.924;2023-07-28T03:15:18;6.03;;;5.45;;
49458;SDS011;35354;51.296;16.924;2023-07-28T03:17:44;6.32;;;5.72;;
49458;SDS011;35354;51.296;16.924;2023-07-28T03:20:10;6.63;;;5.55;;
49458;SDS011;35354;51.296;16.924;2023-07-28T03:22:35;6.78;;;5.75;;
49458;SDS011;35354;51.296;16.924;2023-07-28T03:25:01;6.32;;;5.72;;
49458;SDS011;35354;51.296;16.924;2023-07-28T03:27:26;7.78;;;5.75;;
49458;SDS011;35354;51.296;16.924;2023-07-28T03:29:51;5.75;;;5.15;;
49458;SDS011;35354;51.296;16.924;2023-07-28T03:32:17;6.03;;;5.43;;
49458;SDS011;35354;51.296;16.924;2023-07-28T03:34:42;6.30;;;5.70;;
49458;SDS011;35354;51.296;16.924;2023-07-28T03:37:07;6.60;;;6.00;;
49458;SDS011;35354;51.296;16.924;2023-07-28T03:39:33;6.82;;;6.25;;
49458;SDS011;35354;51.296;16.924;2023-07-28T03:41:59;7.35;;;6.70;;
49458;SDS011;35354;51.296;16.924;2023-07-28T03:44:24;7.05;;;6.35;;
49458;SDS011;35354;51.296;16.924;2023-07-28T03:46:50;7.35;;;6.65;;
49458;SDS011;35354;51.296;16.924;2023-07-28T03:49:15;8.30;;;6.65;;
49458;SDS011;35354;51.296;16.924;2023-07-28T03:51:40;8.07;;;6.82;;
49458;SDS011;35354;51.296;16.924;2023-07-28T03:54:06;7.65;;;6.90;;
49458;SDS011;35354;51.296;16.924;2023-07-28T03:56:31;8.00;;;7.18;;
49458;SDS011;35354;51.296;16.924;2023-07-28T03:58:56;8.05;;;7.30;;
49458;SDS011;35354;51.296;16.924;2023-07-28T04:01:22;7.45;;;6.65;;
49458;SDS011;35354;51.296;16.924;2023-07-28T04:03:47;9.55;;;8.65;;
49458;SDS011;35354;51.296;16.924;2023-07-28T04:06:13;8.25;;;7.45;;
49458;SDS011;35354;51.296;16.924;2023-07-28T04:08:41;8.40;;;7.63;;
49458;SDS011;35354;51.296;16.924;2023-07-28T04:11:07;8.02;;;7.10;;
49458;SDS011;35354;51.296;16.924;2023-07-28T04:13:33;7.78;;;7.13;;
49458;SDS011;35354;51.296;16.924;2023-07-28T04:16:01;8.50;;;7.70;;
49458;SDS011;35354;51.296;16.924;2023-07-28T04:18:27;8.85;;;8.00;;
49458;SDS011;35354;51.296;16.924;2023-07-28T04:20:52;9.23;;;8.32;;
49458;SDS011;35354;51.296;16.924;2023-07-28T04:23:18;7.40;;;6.80;;
49458;SDS011;35354;51.296;16.924;2023-07-28T04:25:43;8.18;;;7.47;;
49458;SDS011;35354;51.296;16.924;2023-07-28T04:28:09;7.28;;;6.68;;
49458;SDS011;35354;51.296;16.924;2023-07-28T04:30:34;7.50;;;6.70;;
49458;SDS011;35354;51.296;16.924;2023-07-28T04:33:00;7.10;;;6.50;;
49458;SDS011;35354;51.296;16.924;2023-07-28T04:35:25;7.18;;;6.60;;
49458;SDS011;35354;51.296;16.924;2023-07-28T04:37:51;7.03;;;6.38;;
49458;SDS011;35354;51.296;16.924;2023-07-28T04:40:16;6.60;;;6.03;;
49458;SDS011;35354;51.296;16.924;2023-07-28T04:42:41;8.13;;;7.30;;
49458;SDS011;35354;51.296;16.924;2023-07-28T04:45:07;7.13;;;6.13;;
49458;SDS011;35354;51.296;16.924;2023-07-28T04:47:33;5.82;;;5.32;;
49458;SDS011;35354;51.296;16.924;2023-07-28T04:49:58;6.53;;;5.93;;
49458;SDS011;35354;51.296;16.924;2023-07-28T04:52:24;5.75;;;5.25;;
49458;SDS011;35354;51.296;16.924;2023-07-28T04:54:49;5.57;;;5.07;;
49458;SDS011;35354;51.296;16.924;2023-07-28T04:57:14;5.35;;;4.95;;
49458;SDS011;35354;51.296;16.924;2023-07-28T04:59:40;4.80;;;4.30;;
49458;SDS011;35354;51.296;16.924;2023-07-28T05:02:06;4.50;;;4.10;;
49458;SDS011;35354;51.296;16.924;2023-07-28T05:04:31;3.92;;;3.63;;
49458;SDS011;35354;51.296;16.924;2023-07-28T05:06:57;3.70;;;3.40;;
49458;SDS011;35354;51.296;16.924;2023-07-28T05:09:22;3.42;;;3.05;;
49458;SDS011;35354;51.296;16.924;2023-07-28T05:11:47;3.58;;;3.05;;
49458;SDS011;35354;51.296;16.924;2023-07-28T05:14:13;3.83;;;3.40;;
49458;SDS011;35354;51.296;16.924;2023-07-28T05:16:38;3.63;;;3.28;;
49458;SDS011;35354;51.296;16.924;2023-07-28T05:19:05;4.18;;;3.42;;
49458;SDS011;35354;51.296;16.924;2023-07-28T05:21:31;5.28;;;3.78;;
49458;SDS011;35354;51.296;16.924;2023-07-28T05:23:57;3.28;;;2.97;;
49458;SDS011;35354;51.296;16.924;2023-07-28T05:26:22;3.75;;;3.42;;
49458;SDS011;35354;51.296;16.924;2023-07-28T05:28:47;3.22;;;3.03;;
49458;SDS011;35354;51.296;16.924;2023-07-28T05:31:13;2.90;;;2.70;;
49458;SDS011;35354;51.296;16.924;2023-07-28T05:33:40;3.20;;;2.90;;
49458;SDS011;35354;51.296;16.924;2023-07-28T05:36:05;3.47;;;3.17;;
49458;SDS011;35354;51.296;16.924;2023-07-28T05:38:31;5.43;;;2.90;;
49458;SDS011;35354;51.296;16.924;2023-07-28T05:40:57;2.65;;;2.45;;
49458;SDS011;35354;51.296;16.924;2023-07-28T05:43:25;2.40;;;2.15;;
49458;SDS011;35354;51.296;16.924;2023-07-28T05:45:50;3.15;;;2.00;;
49458;SDS011;35354;51.296;16.924;2023-07-28T05:48:16;1.98;;;1.88;;
49458;SDS011;35354;51.296;16.924;2023-07-28T05:50:41;2.30;;;2.10;;
49458;SDS011;35354;51.296;16.924;2023-07-28T05:53:07;2.10;;;1.90;;
49458;SDS011;35354;51.296;16.924;2023-07-28T05:55:32;1.92;;;1.73;;
49458;SDS011;35354;51.296;16.924;2023-07-28T05:57:57;2.33;;;1.80;;
49458;SDS011;35354;51.296;16.924;2023-07-28T06:00:23;2.22;;;2.00;;
49458;SDS011;35354;51.296;16.924;2023-07-28T06:02:48;2.13;;;1.92;;
49458;SDS011;35354;51.296;16.924;2023-07-28T06:05:14;2.40;;;2.03;;
49458;SDS011;35354;51.296;16.924;2023-07-28T06:07:39;1.90;;;1.80;;
49458;SDS011;35354;51.296;16.924;2023-07-28T06:10:05;2.00;;;1.90;;
49458;SDS011;35354;51.296;16.924;2023-07-28T06:12:31;2.63;;;2.42;;
49458;SDS011;35354;51.296;16.924;2023-07-28T06:14:56;2.67;;;1.95;;
49458;SDS011;35354;51.296;16.924;2023-07-28T06:17:22;2.03;;;1.90;;
49458;SDS011;35354;51.296;16.924;2023-07-28T06:19:47;4.32;;;2.08;;
49458;SDS011;35354;51.296;16.924;2023-07-28T06:22:12;2.33;;;2.03;;
49458;SDS011;35354;51.296;16.924;2023-07-28T06:24:38;1.65;;;1.55;;
49458;SDS011;35354;51.296;16.924;2023-07-28T06:27:03;2.17;;;1.98;;
49458;SDS011;35354;51.296;16.924;2023-07-28T06:29:33;1.92;;;1.80;;
49458;SDS011;35354;51.296;16.924;2023-07-28T06:31:58;1.63;;;1.48;;
49458;SDS011;35354;51.296;16.924;2023-07-28T06:34:24;1.73;;;1.40;;
49458;SDS011;35354;51.296;16.924;2023-07-28T06:36:49;2.28;;;1.48;;
49458;SDS011;35354;51.296;16.924;2023-07-28T06:39:14;1.60;;;1.50;;
49458;SDS011;35354;51.296;16.924;2023-07-28T06:41:40;1.52;;;1.42;;
49458;SDS011;35354;51.296;16.924;2023-07-28T06:44:05;2.25;;;1.45;;
49458;SDS011;35354;51.296;16.924;2023-07-28T06:46:30;1.70;;;1.20;;
49458;SDS011;35354;51.296;16.924;2023-07-28T06:48:56;2.35;;;1.30;;
49458;SDS011;35354;51.296;16.924;2023-07-28T06:51:21;1.63;;;1.40;;
49458;SDS011;35354;51.296;16.924;2023-07-28T06:53:47;2.15;;;1.23;;
49458;SDS011;35354;51.296;16.924;2023-07-28T06:56:12;1.65;;;1.48;;
49458;SDS011;35354;51.296;16.924;2023-07-28T06:58:38;1.30;;;1.20;;
49458;SDS011;35354;51.296;16.924;2023-07-28T07:01:03;1.67;;;1.10;;
49458;SDS011;35354;51.296;16.924;2023-07-28T07:03:28;2.38;;;1.10;;
49458;SDS011;35354;51.296;16.924;2023-07-28T07:05:54;1.25;;;1.17;;
49458;SDS011;35354;51.296;16.924;2023-07-28T07:08:19;1.77;;;1.10;;
49458;SDS011;35354;51.296;16.924;2023-07-28T07:10:51;1.15;;;1.02;;
49458;SDS011;35354;51.296;16.924;2023-07-28T07:13:17;2.35;;;1.38;;
49458;SDS011;35354;51.296;16.924;2023-07-28T07:15:43;1.30;;;1.20;;
49458;SDS011;35354;51.296;16.924;2023-07-28T07:18:09;1.35;;;1.25;;
49458;SDS011;35354;51.296;16.924;2023-07-28T07:20:35;1.77;;;1.20;;
49458;SDS011;35354;51.296;16.924;2023-07-28T07:23:01;1.20;;;1.10;;
49458;SDS011;35354;51.296;16.924;2023-07-28T07:25:26;1.27;;;1.10;;
49458;SDS011;35354;51.296;16.924;2023-07-28T07:27:52;1.08;;;1.08;;
49458;SDS011;35354;51.296;16.924;2023-07-28T07:30:17;1.48;;;1.00;;
49458;SDS011;35354;51.296;16.924;2023-07-28T07:32:42;1.13;;;1.10;;
49458;SDS011;35354;51.296;16.924;2023-07-28T07:35:08;1.02;;;1.00;;
49458;SDS011;35354;51.296;16.924;2023-07-28T07:37:34;2.85;;;1.20;;
49458;SDS011;35354;51.296;16.924;2023-07-28T07:39:59;1.58;;;1.10;;
49458;SDS011;35354;51.296;16.924;2023-07-28T07:42:26;1.80;;;0.93;;
49458;SDS011;35354;51.296;16.924;2023-07-28T07:44:52;0.95;;;0.90;;
49458;SDS011;35354;51.296;16.924;2023-07-28T07:47:17;1.13;;;1.08;;
49458;SDS011;35354;51.296;16.924;2023-07-28T07:49:43;1.20;;;1.10;;
49458;SDS011;35354;51.296;16.924;2023-07-28T07:52:08;1.25;;;1.05;;
49458;SDS011;35354;51.296;16.924;2023-07-28T07:54:34;0.98;;;0.98;;
49458;SDS011;35354;51.296;16.924;2023-07-28T07:57:00;1.02;;;0.88;;
49458;SDS011;35354;51.296;16.924;2023-07-28T07:59:25;2.63;;;1.23;;
49458;SDS011;35354;51.296;16.924;2023-07-28T08:01:53;1.77;;;1.10;;
49458;SDS011;35354;51.296;16.924;2023-07-28T08:04:19;1.08;;;1.08;;
49458;SDS011;35354;51.296;16.924;2023-07-28T08:06:44;1.08;;;0.98;;
49458;SDS011;35354;51.296;16.924;2023-07-28T08:09:09;2.35;;;1.40;;
49458;SDS011;35354;51.296;16.924;2023-07-28T08:11:35;1.02;;;1.02;;
49458;SDS011;35354;51.296;16.924;2023-07-28T08:14:00;2.63;;;1.00;;
49458;SDS011;35354;51.296;16.924;2023-07-28T08:16:25;1.00;;;1.00;;
49458;SDS011;35354;51.296;16.924;2023-07-28T08:18:51;1.67;;;1.58;;
49458;SDS011;35354;51.296;16.924;2023-07-28T08:21:16;1.75;;;1.17;;
49458;SDS011;35354;51.296;16.924;2023-07-28T08:23:42;1.17;;;1.10;;
49458;SDS011;35354;51.296;16.924;2023-07-28T08:26:07;2.15;;;1.33;;
49458;SDS011;35354;51.296;16.924;2023-07-28T08:28:36;1.92;;;1.40;;
49458;SDS011;35354;51.296;16.924;2023-07-28T08:31:24;1.73;;;1.63;;
49458;SDS011;35354;51.296;16.924;2023-07-28T08:33:49;2.55;;;1.60;;
49458;SDS011;35354;51.296;16.924;2023-07-28T08:36:15;2.58;;;1.88;;
49458;SDS011;35354;51.296;16.924;2023-07-28T08:38:40;1.65;;;1.55;;
49458;SDS011;35354;51.296;16.924;2023-07-28T08:41:06;1.73;;;1.63;;
49458;SDS011;35354;51.296;16.924;2023-07-28T08:43:31;2.30;;;1.60;;
49458;SDS011;35354;51.296;16.924;2023-07-28T08:45:57;1.80;;;1.70;;
49458;SDS011;35354;51.296;16.924;2023-07-28T08:48:22;3.47;;;1.80;;
49458;SDS011;35354;51.296;16.924;2023-07-28T08:50:48;2.03;;;1.83;;
49458;SDS011;35354;51.296;16.924;2023-07-28T08:53:14;1.70;;;1.60;;
49458;SDS011;35354;51.296;16.924;2023-07-28T08:55:39;2.47;;;1.65;;
49458;SDS011;35354;51.296;16.924;2023-07-28T08:58:17;1.65;;;1.55;;
49458;SDS011;35354;51.296;16.924;2023-07-28T09:00:44;1.70;;;1.60;;
49458;SDS011;35354;51.296;16.924;2023-07-28T09:03:11;1.70;;;1.60;;
49458;SDS011;35354;51.296;16.924;2023-07-28T09:05:37;1.58;;;1.48;;
49458;SDS011;35354;51.296;16.924;2023-07-28T09:08:05;2.92;;;1.70;;
49458;SDS011;35354;51.296;16.924;2023-07-28T09:10:40;1.67;;;1.58;;
49458;SDS011;35354;51.296;16.924;2023-07-28T09:13:08;1.73;;;1.63;;
49458;SDS011;35354;51.296;16.924;2023-07-28T09:15:36;1.60;;;1.50;;
49458;SDS011;35354;51.296;16.924;2023-07-28T09:18:01;3.40;;;1.90;;
49458;SDS011;35354;51.296;16.924;2023-07-28T09:20:32;1.95;;;1.50;;
49458;SDS011;35354;51.296;16.924;2023-07-28T09:23:00;1.70;;;1.60;;
49458;SDS011;35354;51.296;16.924;2023-07-28T09:25:27;1.85;;;1.75;;
49458;SDS011;35354;51.296;16.924;2023-07-28T09:27:54;1.98;;;1.88;;
49458;SDS011;35354;51.296;16.924;2023-07-28T09:30:19;2.08;;;1.98;;
49458;SDS011;35354;51.296;16.924;2023-07-28T09:32:50;2.25;;;2.05;;
49458;SDS011;35354;51.296;16.924;2023-07-28T09:35:18;3.15;;;2.17;;
49458;SDS011;35354;51.296;16.924;2023-07-28T09:37:45;1.85;;;1.75;;
49458;SDS011;35354;51.296;16.924;2023-07-28T09:40:18;1.90;;;1.80;;
49458;SDS011;35354;51.296;16.924;2023-07-28T09:42:48;1.85;;;1.75;;
49458;SDS011;35354;51.296;16.924;2023-07-28T09:45:15;2.47;;;1.85;;
49458;SDS011;35354;51.296;16.924;2023-07-28T09:47:42;2.00;;;1.90;;
49458;SDS011;35354;51.296;16.924;2023-07-28T09:50:10;2.08;;;1.98;;
49458;SDS011;35354;51.296;16.924;2023-07-28T09:52:39;2.40;;;2.20;;
49458;SDS011;35354;51.296;16.924;2023-07-28T09:55:08;2.20;;;2.00;;
49458;SDS011;35354;51.296;16.924;2023-07-28T09:57:38;2.20;;;2.10;;
49458;SDS011;35354;51.296;16.924;2023-07-28T10:00:10;2.13;;;2.03;;
49458;SDS011;35354;51.296;16.924;2023-07-28T10:02:38;3.05;;;2.83;;
49458;SDS011;35354;51.296;16.924;2023-07-28T10:05:05;3.00;;;2.80;;
49458;SDS011;35354;51.296;16.924;2023-07-28T10:07:32;2.60;;;2.40;;
49458;SDS011;35354;51.296;16.924;2023-07-28T10:09:59;3.15;;;2.95;;
49458;SDS011;35354;51.296;16.924;2023-07-28T10:12:26;2.53;;;2.30;;
49458;SDS011;35354;51.296;16.924;2023-07-28T10:15:04;5.93;;;3.00;;
49458;SDS011;35354;51.296;16.924;2023-07-28T10:17:33;2.40;;;2.20;;
49458;SDS011;35354;51.296;16.924;2023-07-28T10:20:02;3.00;;;2.42;;
49458;SDS011;35354;51.296;16.924;2023-07-28T10:22:33;2.40;;;2.22;;
49458;SDS011;35354;51.296;16.924;2023-07-28T10:25:08;2.20;;;2.00;;
49458;SDS011;35354;51.296;16.924;2023-07-28T10:27:39;2.30;;;2.10;;
49458;SDS011;35354;51.296;16.924;2023-07-28T10:30:11;1.92;;;1.80;;
49458;SDS011;35354;51.296;16.924;2023-07-28T10:32:38;2.10;;;1.98;;
49458;SDS011;35354;51.296;16.924;2023-07-28T10:35:08;2.08;;;1.90;;
49458;SDS011;35354;51.296;16.924;2023-07-28T10:37:35;2.55;;;2.25;;
49458;SDS011;35354;51.296;16.924;2023-07-28T10:40:21;2.20;;;2.00;;
49458;SDS011;35354;51.296;16.924;2023-07-28T10:42:53;1.92;;;1.83;;
49458;SDS011;35354;51.296;16.924;2023-07-28T10:45:19;2.17;;;1.98;;
49458;SDS011;35354;51.296;16.924;2023-07-28T10:47:47;2.65;;;2.33;;
49458;SDS011;35354;51.296;16.924;2023-07-28T10:50:13;2.10;;;2.00;;
49458;SDS011;35354;51.296;16.924;2023-07-28T10:52:39;2.65;;;2.10;;
49458;SDS011;35354;51.296;16.924;2023-07-28T10:55:18;2.58;;;2.38;;
49458;SDS011;35354;51.296;16.924;2023-07-28T10:57:48;2.13;;;1.92;;
49458;SDS011;35354;51.296;16.924;2023-07-28T11:00:16;2.00;;;1.90;;
49458;SDS011;35354;51.296;16.924;2023-07-28T11:02:47;2.60;;;2.40;;
49458;SDS011;35354;51.296;16.924;2023-07-28T11:05:23;2.75;;;2.40;;
49458;SDS011;35354;51.296;16.924;2023-07-28T11:07:56;4.70;;;2.35;;
49458;SDS011;35354;51.296;16.924;2023-07-28T11:10:23;2.05;;;1.95;;
49458;SDS011;35354;51.296;16.924;2023-07-28T11:12:50;2.13;;;2.03;;
49458;SDS011;35354;51.296;16.924;2023-07-28T11:15:17;2.13;;;2.03;;
49458;SDS011;35354;51.296;16.924;2023-07-28T11:17:47;2.33;;;2.03;;
49458;SDS011;35354;51.296;16.924;2023-07-28T11:22:51;2.33;;;2.00;;
49458;SDS011;35354;51.296;16.924;2023-07-28T11:25:24;1.92;;;1.77;;
49458;SDS011;35354;51.296;16.924;2023-07-28T11:27:51;2.22;;;1.80;;
49458;SDS011;35354;51.296;16.924;2023-07-28T11:30:17;3.70;;;1.80;;
49458;SDS011;35354;51.296;16.924;2023-07-28T11:32:45;1.52;;;1.42;;
49458;SDS011;35354;51.296;16.924;2023-07-28T11:35:12;1.98;;;1.60;;
49458;SDS011;35354;51.296;16.924;2023-07-28T11:37:39;1.42;;;1.30;;
49458;SDS011;35354;51.296;16.924;2023-07-28T11:40:06;1.40;;;1.17;;
49458;SDS011;35354;51.296;16.924;2023-07-28T11:50:25;1.42;;;1.33;;
49458;SDS011;35354;51.296;16.924;2023-07-28T11:52:52;2.90;;;1.30;;
49458;SDS011;35354;51.296;16.924;2023-07-28T11:55:18;1.80;;;1.42;;
49458;SDS011;35354;51.296;16.924;2023-07-28T11:57:44;1.20;;;1.10;;
49458;SDS011;35354;51.296;16.924;2023-07-28T12:00:10;1.40;;;1.30;;
49458;SDS011;35354;51.296;16.924;2023-07-28T12:02:37;1.52;;;1.42;;
49458;SDS011;35354;51.296;16.924;2023-07-28T12:05:03;1.33;;;1.23;;
49458;SDS011;35354;51.296;16.924;2023-07-28T12:07:37;1.70;;;1.30;;
49458;SDS011;35354;51.296;16.924;2023-07-28T12:10:03;1.27;;;1.17;;
49458;SDS011;35354;51.296;16.924;2023-07-28T12:12:31;1.20;;;1.10;;
49458;SDS011;35354;51.296;16.924;2023-07-28T12:15:25;1.40;;;1.30;;
49458;SDS011;35354;51.296;16.924;2023-07-28T12:18:09;1.27;;;1.17;;
49458;SDS011;35354;51.296;16.924;2023-07-28T12:20:42;1.02;;;1.02;;
49458;SDS011;35354;51.296;16.924;2023-07-28T12:23:12;1.10;;;1.10;;
49458;SDS011;35354;51.296;16.924;2023-07-28T12:25:41;2.72;;;1.27;;
49458;SDS011;35354;51.296;16.924;2023-07-28T12:28:07;1.10;;;1.00;;
49458;SDS011;35354;51.296;16.924;2023-07-28T12:30:33;1.20;;;1.10;;
49458;SDS011;35354;51.296;16.924;2023-07-28T12:32:58;1.40;;;1.30;;
49458;SDS011;35354;51.296;16.924;2023-07-28T12:35:25;2.70;;;1.23;;
49458;SDS011;35354;51.296;16.924;2023-07-28T12:37:54;1.40;;;1.30;;
49458;SDS011;35354;51.296;16.924;2023-07-28T12:40:19;2.17;;;1.52;;
49458;SDS011;35354;51.296;16.924;2023-07-28T12:42:54;1.52;;;1.10;;
49458;SDS011;35354;51.296;16.924;2023-07-28T12:46:13;3.42;;;1.52;;
49458;SDS011;35354;51.296;16.924;2023-07-28T12:48:39;1.30;;;1.20;;
49458;SDS011;35354;51.296;16.924;2023-07-28T12:51:04;2.17;;;1.40;;
49458;SDS011;35354;51.296;16.924;2023-07-28T12:53:30;2.88;;;1.33;;
49458;SDS011;35354;51.296;16.924;2023-07-28T12:55:55;1.35;;;1.20;;
49458;SDS011;35354;51.296;16.924;2023-07-28T12:58:20;1.40;;;1.23;;
49458;SDS011;35354;51.296;16.924;2023-07-28T13:00:46;1.02;;;1.02;;
49458;SDS011;35354;51.296;16.924;2023-07-28T13:03:11;1.50;;;1.15;;
49458;SDS011;35354;51.296;16.924;2023-07-28T13:05:36;1.27;;;1.17;;
49458;SDS011;35354;51.296;16.924;2023-07-28T13:08:02;1.95;;;1.10;;
49458;SDS011;35354;51.296;16.924;2023-07-28T13:10:27;1.30;;;1.20;;
49458;SDS011;35354;51.296;16.924;2023-07-28T13:12:52;1.30;;;1.20;;
49458;SDS011;35354;51.296;16.924;2023-07-28T13:15:18;6.60;;;1.60;;
49458;SDS011;35354;51.296;16.924;2023-07-28T13:17:43;1.88;;;1.35;;
49458;SDS011;35354;51.296;16.924;2023-07-28T13:20:08;1.38;;;1.27;;
49458;SDS011;35354;51.296;16.924;2023-07-28T13:22:34;1.30;;;1.20;;
49458;SDS011;35354;51.296;16.924;2023-07-28T13:24:59;1.40;;;1.30;;
49458;SDS011;35354;51.296;16.924;2023-07-28T13:27:25;2.08;;;1.33;;
49458;SDS011;35354;51.296;16.924;2023-07-28T13:29:50;1.65;;;1.23;;
49458;SDS011;35354;51.296;16.924;2023-07-28T13:32:16;1.55;;;1.45;;
49458;SDS011;35354;51.296;16.924;2023-07-28T13:34:43;1.30;;;1.10;;
49458;SDS011;35354;51.296;16.924;2023-07-28T13:37:09;1.40;;;1.20;;
49458;SDS011;35354;51.296;16.924;2023-07-28T13:39:34;1.30;;;1.20;;
49458;SDS011;35354;51.296;16.924;2023-07-28T13:41:59;1.90;;;1.52;;
49458;SDS011;35354;51.296;16.924;2023-07-28T13:44:25;1.40;;;1.30;;
49458;SDS011;35354;51.296;16.924;2023-07-28T13:46:50;2.53;;;1.25;;
49458;SDS011;35354;51.296;16.924;2023-07-28T13:49:15;1.40;;;1.30;;
49458;SDS011;35354;51.296;16.924;2023-07-28T13:51:41;1.25;;;1.15;;
49458;SDS011;35354;51.296;16.924;2023-07-28T13:54:06;1.45;;;1.35;;
49458;SDS011;35354;51.296;16.924;2023-07-28T13:56:31;1.50;;;1.38;;
49458;SDS011;35354;51.296;16.924;2023-07-28T13:58:57;1.40;;;1.30;;
49458;SDS011;35354;51.296;16.924;2023-07-28T14:01:22;2.88;;;1.20;;
49458;SDS011;35354;51.296;16.924;2023-07-28T14:03:47;1.00;;;1.00;;
49458;SDS011;35354;51.296;16.924;2023-07-28T14:06:13;1.50;;;1.40;;
49458;SDS011;35354;51.296;16.924;2023-07-28T14:08:38;2.35;;;1.27;;
49458;SDS011;35354;51.296;16.924;2023-07-28T14:11:03;1.60;;;1.50;;
49458;SDS011;35354;51.296;16.924;2023-07-28T14:13:29;1.20;;;1.10;;
49458;SDS011;35354;51.296;16.924;2023-07-28T14:15:54;1.25;;;1.20;;
49458;SDS011;35354;51.296;16.924;2023-07-28T14:18:20;1.40;;;1.30;;
49458;SDS011;35354;51.296;16.924;2023-07-28T14:20:45;2.38;;;1.50;;
49458;SDS011;35354;51.296;16.924;2023-07-28T14:23:27;1.20;;;1.20;;
49458;SDS011;35354;51.296;16.924;2023-07-28T14:25:53;2.05;;;1.35;;
49458;SDS011;35354;51.296;16.924;2023-07-28T14:28:19;1.60;;;1.50;;
49458;SDS011;35354;51.296;16.924;2023-07-28T14:30:45;1.25;;;1.10;;
49458;SDS011;35354;51.296;16.924;2023-07-28T14:33:13;1.50;;;1.40;;
49458;SDS011;35354;51.296;16.924;2023-07-28T14:35:40;1.30;;;1.20;;
49458;SDS011;35354;51.296;16.924;2023-07-28T14:38:05;1.58;;;1.33;;
49458;SDS011;35354;51.296;16.924;2023-07-28T14:40:31;1.20;;;1.20;;
49458;SDS011;35354;51.296;16.924;2023-07-28T14:42:56;1.38;;;1.27;;
49458;SDS011;35354;51.296;16.924;2023-07-28T14:45:21;2.50;;;1.50;;
49458;SDS011;35354;51.296;16.924;2023-07-28T14:47:47;1.80;;;1.35;;
49458;SDS011;35354;51.296;16.924;2023-07-28T14:50:12;1.50;;;1.40;;